Terminal Aerodrome Forecast
Issued by NWS Upton, NY

Home | Current Version | Previous Version | Text Only | Print | Product List | Glossary On
Versions: 1 2 3 4 5 6 7 8 9 10 11 12 13 14 15 16 17 18 19 20 21 22 23 24 25
195
FTUS41 KOKX 091732
TAFISP
TAF
KISP 091732Z 0918/1018 03008KT P6SM BKN015
     FM092200 VRB05KT P6SM OVC012
     FM100400 VRB04KT 1SM -SN BR BKN006 OVC012
      TEMPO 1009/1013 1/2SM SN OVC005
     FM101500 29010KT P6SM SCT010 BKN025=

USA.gov is the U.S. government's official web portal to all federal, state and local government web resources and services.